sensor_id;sensor_type;location;lat;lon;timestamp;temperature;humidity
15636;DHT22;7917;50.818;6.972;2022-09-13T00:00:05;15.60;99.90
15636;DHT22;7917;50.818;6.972;2022-09-13T00:02:34;15.60;99.90
15636;DHT22;7917;50.818;6.972;2022-09-13T00:05:02;15.60;99.90
15636;DHT22;7917;50.818;6.972;2022-09-13T00:07:30;15.60;99.90
15636;DHT22;7917;50.818;6.972;2022-09-13T00:09:57;15.60;99.90
15636;DHT22;7917;50.818;6.972;2022-09-13T00:12:25;15.60;99.90
15636;DHT22;7917;50.818;6.972;2022-09-13T00:14:53;15.60;99.90
15636;DHT22;7917;50.818;6.972;2022-09-13T00:17:20;15.70;99.90
15636;DHT22;7917;50.818;6.972;2022-09-13T00:19:49;15.60;99.90
15636;DHT22;7917;50.818;6.972;2022-09-13T00:22:16;15.60;99.90
15636;DHT22;7917;50.818;6.972;2022-09-13T00:24:43;15.60;99.90
15636;DHT22;7917;50.818;6.972;2022-09-13T00:27:10;15.50;99.90
15636;DHT22;7917;50.818;6.972;2022-09-13T00:29:39;15.50;99.90
15636;DHT22;7917;50.818;6.972;2022-09-13T00:32:06;15.50;99.90
15636;DHT22;7917;50.818;6.972;2022-09-13T00:34:33;15.50;99.90
15636;DHT22;7917;50.818;6.972;2022-09-13T00:37:02;15.60;99.90
15636;DHT22;7917;50.818;6.972;2022-09-13T00:39:30;15.60;99.90
15636;DHT22;7917;50.818;6.972;2022-09-13T00:41:57;15.60;99.90
15636;DHT22;7917;50.818;6.972;2022-09-13T00:44:49;15.50;99.90
15636;DHT22;7917;50.818;6.972;2022-09-13T00:47:20;15.50;99.90
15636;DHT22;7917;50.818;6.972;2022-09-13T00:49:52;15.50;99.90
15636;DHT22;7917;50.818;6.972;2022-09-13T00:52:24;15.50;99.90
15636;DHT22;7917;50.818;6.972;2022-09-13T00:54:59;15.50;99.90
15636;DHT22;7917;50.818;6.972;2022-09-13T00:57:28;15.50;99.90
15636;DHT22;7917;50.818;6.972;2022-09-13T00:59:59;15.50;99.90
15636;DHT22;7917;50.818;6.972;2022-09-13T01:02:54;15.50;99.90
15636;DHT22;7917;50.818;6.972;2022-09-13T01:05:25;15.40;99.90
15636;DHT22;7917;50.818;6.972;2022-09-13T01:07:55;15.40;99.90
15636;DHT22;7917;50.818;6.972;2022-09-13T01:10:23;15.30;99.90
15636;DHT22;7917;50.818;6.972;2022-09-13T01:12:55;15.30;99.90
15636;DHT22;7917;50.818;6.972;2022-09-13T01:15:24;15.30;99.90
15636;DHT22;7917;50.818;6.972;2022-09-13T01:17:52;15.30;99.90
15636;DHT22;7917;50.818;6.972;2022-09-13T01:20:31;15.30;99.90
15636;DHT22;7917;50.818;6.972;2022-09-13T01:29:38;15.20;99.90
15636;DHT22;7917;50.818;6.972;2022-09-13T01:32:19;15.20;99.90
15636;DHT22;7917;50.818;6.972;2022-09-13T01:34:58;15.20;99.90
15636;DHT22;7917;50.818;6.972;2022-09-13T01:37:36;15.20;99.90
15636;DHT22;7917;50.818;6.972;2022-09-13T01:40:15;15.10;99.90
15636;DHT22;7917;50.818;6.972;2022-09-13T01:42:58;15.10;99.90
15636;DHT22;7917;50.818;6.972;2022-09-13T01:45:36;15.20;99.90
15636;DHT22;7917;50.818;6.972;2022-09-13T01:48:11;15.20;99.90
15636;DHT22;7917;50.818;6.972;2022-09-13T01:50:46;15.30;99.90
15636;DHT22;7917;50.818;6.972;2022-09-13T01:53:24;15.30;99.90
15636;DHT22;7917;50.818;6.972;2022-09-13T01:56:00;15.40;99.90
15636;DHT22;7917;50.818;6.972;2022-09-13T01:58:36;15.50;99.90
15636;DHT22;7917;50.818;6.972;2022-09-13T02:01:09;15.50;99.90
15636;DHT22;7917;50.818;6.972;2022-09-13T02:03:46;15.60;99.90
15636;DHT22;7917;50.818;6.972;2022-09-13T02:06:20;15.60;99.90
15636;DHT22;7917;50.818;6.972;2022-09-13T02:08:50;15.60;99.90
15636;DHT22;7917;50.818;6.972;2022-09-13T02:11:21;15.60;99.90
15636;DHT22;7917;50.818;6.972;2022-09-13T02:13:54;15.60;99.90
15636;DHT22;7917;50.818;6.972;2022-09-13T02:16:27;15.50;99.90
15636;DHT22;7917;50.818;6.972;2022-09-13T02:19:00;15.50;99.90
15636;DHT22;7917;50.818;6.972;2022-09-13T02:21:31;15.50;99.90
15636;DHT22;7917;50.818;6.972;2022-09-13T02:24:02;15.50;99.90
15636;DHT22;7917;50.818;6.972;2022-09-13T02:26:33;15.50;99.90
15636;DHT22;7917;50.818;6.972;2022-09-13T02:29:07;15.50;99.90
15636;DHT22;7917;50.818;6.972;2022-09-13T02:31:40;15.50;99.90
15636;DHT22;7917;50.818;6.972;2022-09-13T02:34:16;15.60;99.90
15636;DHT22;7917;50.818;6.972;2022-09-13T02:36:47;15.60;99.90
15636;DHT22;7917;50.818;6.972;2022-09-13T02:39:16;15.70;99.90
15636;DHT22;7917;50.818;6.972;2022-09-13T02:41:55;15.70;99.90
15636;DHT22;7917;50.818;6.972;2022-09-13T02:44:32;15.80;99.90
15636;DHT22;7917;50.818;6.972;2022-09-13T02:47:10;15.80;99.90
15636;DHT22;7917;50.818;6.972;2022-09-13T02:49:49;15.90;99.90
15636;DHT22;7917;50.818;6.972;2022-09-13T02:52:26;15.90;99.90
15636;DHT22;7917;50.818;6.972;2022-09-13T02:55:04;15.90;99.90
15636;DHT22;7917;50.818;6.972;2022-09-13T02:57:37;15.90;99.90
15636;DHT22;7917;50.818;6.972;2022-09-13T03:00:09;16.00;99.90
15636;DHT22;7917;50.818;6.972;2022-09-13T03:02:58;16.00;99.90
15636;DHT22;7917;50.818;6.972;2022-09-13T03:05:32;16.00;99.90
15636;DHT22;7917;50.818;6.972;2022-09-13T03:08:00;16.00;99.90
15636;DHT22;7917;50.818;6.972;2022-09-13T03:10:31;16.00;99.90
15636;DHT22;7917;50.818;6.972;2022-09-13T03:13:31;16.00;99.90
15636;DHT22;7917;50.818;6.972;2022-09-13T03:16:11;16.10;99.90
15636;DHT22;7917;50.818;6.972;2022-09-13T03:18:52;16.10;99.90
15636;DHT22;7917;50.818;6.972;2022-09-13T03:21:40;16.10;99.90
15636;DHT22;7917;50.818;6.972;2022-09-13T03:24:18;16.10;99.90
15636;DHT22;7917;50.818;6.972;2022-09-13T03:27:02;16.10;99.90
15636;DHT22;7917;50.818;6.972;2022-09-13T03:29:39;16.10;99.90
15636;DHT22;7917;50.818;6.972;2022-09-13T03:32:19;16.10;99.90
15636;DHT22;7917;50.818;6.972;2022-09-13T03:34:55;16.10;99.90
15636;DHT22;7917;50.818;6.972;2022-09-13T03:37:33;16.10;99.90
15636;DHT22;7917;50.818;6.972;2022-09-13T03:40:08;16.10;99.90
15636;DHT22;7917;50.818;6.972;2022-09-13T03:42:41;16.10;99.90
15636;DHT22;7917;50.818;6.972;2022-09-13T03:45:11;16.10;99.90
15636;DHT22;7917;50.818;6.972;2022-09-13T03:47:41;16.20;99.90
15636;DHT22;7917;50.818;6.972;2022-09-13T03:50:15;16.10;99.90
15636;DHT22;7917;50.818;6.972;2022-09-13T03:52:49;16.10;99.90
15636;DHT22;7917;50.818;6.972;2022-09-13T03:55:18;16.10;99.90
15636;DHT22;7917;50.818;6.972;2022-09-13T03:57:46;16.10;99.90
15636;DHT22;7917;50.818;6.972;2022-09-13T04:00:15;16.10;99.90
15636;DHT22;7917;50.818;6.972;2022-09-13T04:02:43;16.10;99.90
15636;DHT22;7917;50.818;6.972;2022-09-13T04:05:11;16.10;99.90
15636;DHT22;7917;50.818;6.972;2022-09-13T04:07:38;16.20;99.90
15636;DHT22;7917;50.818;6.972;2022-09-13T04:10:09;16.20;99.90
15636;DHT22;7917;50.818;6.972;2022-09-13T04:12:36;16.20;99.90
15636;DHT22;7917;50.818;6.972;2022-09-13T04:15:08;16.20;99.90
15636;DHT22;7917;50.818;6.972;2022-09-13T04:17:36;16.20;99.90
15636;DHT22;7917;50.818;6.972;2022-09-13T04:20:05;16.20;99.90
15636;DHT22;7917;50.818;6.972;2022-09-13T04:22:33;16.20;99.90
15636;DHT22;7917;50.818;6.972;2022-09-13T04:25:01;16.10;99.90
15636;DHT22;7917;50.818;6.972;2022-09-13T04:27:31;16.10;99.90
15636;DHT22;7917;50.818;6.972;2022-09-13T04:29:59;16.10;99.90
15636;DHT22;7917;50.818;6.972;2022-09-13T04:32:27;16.10;99.90
15636;DHT22;7917;50.818;6.972;2022-09-13T04:34:56;16.10;99.90
15636;DHT22;7917;50.818;6.972;2022-09-13T04:37:25;16.20;99.90
15636;DHT22;7917;50.818;6.972;2022-09-13T04:39:52;16.10;99.90
15636;DHT22;7917;50.818;6.972;2022-09-13T04:42:20;16.10;99.90
15636;DHT22;7917;50.818;6.972;2022-09-13T04:44:49;16.10;99.90
15636;DHT22;7917;50.818;6.972;2022-09-13T04:47:17;16.10;99.90
15636;DHT22;7917;50.818;6.972;2022-09-13T04:49:44;16.00;99.90
15636;DHT22;7917;50.818;6.972;2022-09-13T04:52:14;16.00;99.90
15636;DHT22;7917;50.818;6.972;2022-09-13T04:54:41;16.00;99.90
15636;DHT22;7917;50.818;6.972;2022-09-13T04:57:09;16.00;99.90
15636;DHT22;7917;50.818;6.972;2022-09-13T04:59:37;16.00;99.90
15636;DHT22;7917;50.818;6.972;2022-09-13T05:02:06;16.00;99.90
15636;DHT22;7917;50.818;6.972;2022-09-13T05:04:34;15.90;99.90
15636;DHT22;7917;50.818;6.972;2022-09-13T05:07:13;15.90;99.90
15636;DHT22;7917;50.818;6.972;2022-09-13T05:09:43;15.90;99.90
15636;DHT22;7917;50.818;6.972;2022-09-13T05:12:12;15.90;99.90
15636;DHT22;7917;50.818;6.972;2022-09-13T05:14:39;15.90;99.90
15636;DHT22;7917;50.818;6.972;2022-09-13T05:17:08;15.90;99.90
15636;DHT22;7917;50.818;6.972;2022-09-13T05:19:38;15.90;99.90
15636;DHT22;7917;50.818;6.972;2022-09-13T05:22:05;15.90;99.90
15636;DHT22;7917;50.818;6.972;2022-09-13T05:24:33;15.90;99.90
15636;DHT22;7917;50.818;6.972;2022-09-13T05:27:00;15.90;99.90
15636;DHT22;7917;50.818;6.972;2022-09-13T05:29:28;15.90;99.90
15636;DHT22;7917;50.818;6.972;2022-09-13T05:31:56;16.00;99.90
15636;DHT22;7917;50.818;6.972;2022-09-13T05:34:25;16.00;99.90
15636;DHT22;7917;50.818;6.972;2022-09-13T05:36:54;16.10;99.90
15636;DHT22;7917;50.818;6.972;2022-09-13T05:39:21;16.10;99.90
15636;DHT22;7917;50.818;6.972;2022-09-13T05:41:49;16.10;99.90
15636;DHT22;7917;50.818;6.972;2022-09-13T05:44:18;16.20;99.90
15636;DHT22;7917;50.818;6.972;2022-09-13T05:46:46;16.20;99.90
15636;DHT22;7917;50.818;6.972;2022-09-13T05:49:14;16.30;99.90
15636;DHT22;7917;50.818;6.972;2022-09-13T05:52:03;16.30;99.90
15636;DHT22;7917;50.818;6.972;2022-09-13T05:54:40;16.40;99.90
15636;DHT22;7917;50.818;6.972;2022-09-13T05:57:07;16.40;99.90
15636;DHT22;7917;50.818;6.972;2022-09-13T05:59:36;16.50;99.90
15636;DHT22;7917;50.818;6.972;2022-09-13T06:02:03;16.50;99.90
15636;DHT22;7917;50.818;6.972;2022-09-13T06:04:31;16.50;99.90
15636;DHT22;7917;50.818;6.972;2022-09-13T06:06:59;16.60;99.90
15636;DHT22;7917;50.818;6.972;2022-09-13T06:09:28;16.70;99.90
15636;DHT22;7917;50.818;6.972;2022-09-13T06:11:56;16.70;99.90
15636;DHT22;7917;50.818;6.972;2022-09-13T06:14:25;16.80;99.90
15636;DHT22;7917;50.818;6.972;2022-09-13T06:16:52;16.90;99.90
15636;DHT22;7917;50.818;6.972;2022-09-13T06:19:20;16.90;99.90
15636;DHT22;7917;50.818;6.972;2022-09-13T06:21:49;17.00;99.90
15636;DHT22;7917;50.818;6.972;2022-09-13T06:24:16;17.10;99.90
15636;DHT22;7917;50.818;6.972;2022-09-13T06:26:45;17.10;99.90
15636;DHT22;7917;50.818;6.972;2022-09-13T06:29:14;17.20;99.90
15636;DHT22;7917;50.818;6.972;2022-09-13T06:31:41;17.30;99.90
15636;DHT22;7917;50.818;6.972;2022-09-13T06:34:10;17.40;99.90
15636;DHT22;7917;50.818;6.972;2022-09-13T06:36:39;17.50;99.90
15636;DHT22;7917;50.818;6.972;2022-09-13T06:39:07;17.50;99.90
15636;DHT22;7917;50.818;6.972;2022-09-13T06:41:35;17.60;99.90
15636;DHT22;7917;50.818;6.972;2022-09-13T06:44:05;17.70;99.90
15636;DHT22;7917;50.818;6.972;2022-09-13T06:46:34;17.60;99.90
15636;DHT22;7917;50.818;6.972;2022-09-13T06:49:05;17.70;99.90
15636;DHT22;7917;50.818;6.972;2022-09-13T06:51:35;17.70;99.90
15636;DHT22;7917;50.818;6.972;2022-09-13T06:54:03;17.70;99.90
15636;DHT22;7917;50.818;6.972;2022-09-13T06:56:31;17.80;99.90
15636;DHT22;7917;50.818;6.972;2022-09-13T06:59:00;17.80;99.90
15636;DHT22;7917;50.818;6.972;2022-09-13T07:01:33;17.90;99.90
15636;DHT22;7917;50.818;6.972;2022-09-13T07:04:03;18.00;99.90
15636;DHT22;7917;50.818;6.972;2022-09-13T07:06:33;18.10;99.90
15636;DHT22;7917;50.818;6.972;2022-09-13T07:09:03;18.20;99.90
15636;DHT22;7917;50.818;6.972;2022-09-13T07:11:32;18.30;99.90
15636;DHT22;7917;50.818;6.972;2022-09-13T07:14:00;18.40;99.90
15636;DHT22;7917;50.818;6.972;2022-09-13T07:16:31;18.40;99.90
15636;DHT22;7917;50.818;6.972;2022-09-13T07:19:00;18.50;99.90
15636;DHT22;7917;50.818;6.972;2022-09-13T07:21:31;18.60;99.90
15636;DHT22;7917;50.818;6.972;2022-09-13T07:23:59;18.70;99.90
15636;DHT22;7917;50.818;6.972;2022-09-13T07:26:29;18.80;99.90
15636;DHT22;7917;50.818;6.972;2022-09-13T07:28:59;18.90;99.90
15636;DHT22;7917;50.818;6.972;2022-09-13T07:31:31;19.00;99.90
15636;DHT22;7917;50.818;6.972;2022-09-13T07:33:59;19.20;99.90
15636;DHT22;7917;50.818;6.972;2022-09-13T07:36:31;19.40;99.90
15636;DHT22;7917;50.818;6.972;2022-09-13T07:39:00;19.60;99.90
15636;DHT22;7917;50.818;6.972;2022-09-13T07:41:29;19.80;99.90
15636;DHT22;7917;50.818;6.972;2022-09-13T07:43:57;19.90;99.90
15636;DHT22;7917;50.818;6.972;2022-09-13T07:46:27;20.20;99.90
15636;DHT22;7917;50.818;6.972;2022-09-13T07:48:59;20.50;99.90
15636;DHT22;7917;50.818;6.972;2022-09-13T07:51:28;20.60;99.90
15636;DHT22;7917;50.818;6.972;2022-09-13T07:53:59;20.70;99.90
15636;DHT22;7917;50.818;6.972;2022-09-13T07:56:29;20.70;99.90
15636;DHT22;7917;50.818;6.972;2022-09-13T07:58:58;20.80;99.90
15636;DHT22;7917;50.818;6.972;2022-09-13T08:01:28;20.80;99.90
15636;DHT22;7917;50.818;6.972;2022-09-13T08:03:58;20.90;99.90
15636;DHT22;7917;50.818;6.972;2022-09-13T08:06:27;21.00;99.90
15636;DHT22;7917;50.818;6.972;2022-09-13T08:08:56;21.10;99.90
15636;DHT22;7917;50.818;6.972;2022-09-13T08:11:26;21.10;99.90
15636;DHT22;7917;50.818;6.972;2022-09-13T08:13:55;21.10;99.90
15636;DHT22;7917;50.818;6.972;2022-09-13T08:19:28;21.30;99.90
15636;DHT22;7917;50.818;6.972;2022-09-13T08:21:57;21.40;99.90
15636;DHT22;7917;50.818;6.972;2022-09-13T08:24:24;21.60;99.90
15636;DHT22;7917;50.818;6.972;2022-09-13T08:26:56;21.70;99.90
15636;DHT22;7917;50.818;6.972;2022-09-13T08:29:28;21.80;99.90
15636;DHT22;7917;50.818;6.972;2022-09-13T08:31:56;21.80;99.90
15636;DHT22;7917;50.818;6.972;2022-09-13T08:34:26;21.90;99.90
15636;DHT22;7917;50.818;6.972;2022-09-13T08:37:13;22.10;99.90
15636;DHT22;7917;50.818;6.972;2022-09-13T08:39:40;22.30;99.90
15636;DHT22;7917;50.818;6.972;2022-09-13T08:42:20;22.40;99.90
15636;DHT22;7917;50.818;6.972;2022-09-13T08:44:53;22.50;99.90
15636;DHT22;7917;50.818;6.972;2022-09-13T08:47:39;22.60;99.90
15636;DHT22;7917;50.818;6.972;2022-09-13T08:50:13;22.60;99.90
15636;DHT22;7917;50.818;6.972;2022-09-13T08:52:56;22.60;99.90
15636;DHT22;7917;50.818;6.972;2022-09-13T08:55:33;22.70;99.90
15636;DHT22;7917;50.818;6.972;2022-09-13T08:58:08;22.70;99.90
15636;DHT22;7917;50.818;6.972;2022-09-13T09:00:45;22.90;99.90
15636;DHT22;7917;50.818;6.972;2022-09-13T09:03:23;22.90;99.90
15636;DHT22;7917;50.818;6.972;2022-09-13T09:05:53;23.00;99.90
15636;DHT22;7917;50.818;6.972;2022-09-13T09:08:36;23.20;99.90
15636;DHT22;7917;50.818;6.972;2022-09-13T09:11:11;23.30;99.90
15636;DHT22;7917;50.818;6.972;2022-09-13T09:13:46;23.30;99.90
15636;DHT22;7917;50.818;6.972;2022-09-13T09:16:29;23.30;99.90
15636;DHT22;7917;50.818;6.972;2022-09-13T09:19:10;23.40;99.90
15636;DHT22;7917;50.818;6.972;2022-09-13T09:21:42;23.40;99.90
15636;DHT22;7917;50.818;6.972;2022-09-13T09:24:18;23.50;99.90
15636;DHT22;7917;50.818;6.972;2022-09-13T09:26:47;23.50;99.90
15636;DHT22;7917;50.818;6.972;2022-09-13T09:29:17;23.50;99.90
15636;DHT22;7917;50.818;6.972;2022-09-13T09:31:58;23.50;99.90
15636;DHT22;7917;50.818;6.972;2022-09-13T09:34:36;23.60;99.90
15636;DHT22;7917;50.818;6.972;2022-09-13T09:37:16;23.60;99.90
15636;DHT22;7917;50.818;6.972;2022-09-13T09:39:48;23.80;99.90
15636;DHT22;7917;50.818;6.972;2022-09-13T09:42:19;23.80;99.90
15636;DHT22;7917;50.818;6.972;2022-09-13T09:44:51;23.80;99.90
15636;DHT22;7917;50.818;6.972;2022-09-13T09:47:22;24.00;99.90
15636;DHT22;7917;50.818;6.972;2022-09-13T09:49:55;24.20;99.90
15636;DHT22;7917;50.818;6.972;2022-09-13T09:52:42;24.30;99.90
15636;DHT22;7917;50.818;6.972;2022-09-13T09:55:16;24.40;99.90
15636;DHT22;7917;50.818;6.972;2022-09-13T09:57:51;24.50;99.90
15636;DHT22;7917;50.818;6.972;2022-09-13T10:00:21;24.50;99.90
15636;DHT22;7917;50.818;6.972;2022-09-13T10:02:52;24.60;99.90
15636;DHT22;7917;50.818;6.972;2022-09-13T10:05:22;24.70;99.90
15636;DHT22;7917;50.818;6.972;2022-09-13T10:07:53;24.70;99.90
15636;DHT22;7917;50.818;6.972;2022-09-13T10:13:30;24.60;99.90
15636;DHT22;7917;50.818;6.972;2022-09-13T10:16:00;24.50;99.90
15636;DHT22;7917;50.818;6.972;2022-09-13T10:18:29;24.60;99.90
15636;DHT22;7917;50.818;6.972;2022-09-13T10:21:02;24.80;99.90
15636;DHT22;7917;50.818;6.972;2022-09-13T10:23:32;25.00;99.90
15636;DHT22;7917;50.818;6.972;2022-09-13T10:26:08;25.00;99.90
15636;DHT22;7917;50.818;6.972;2022-09-13T10:28:45;24.70;99.90
15636;DHT22;7917;50.818;6.972;2022-09-13T10:31:15;24.90;99.90
15636;DHT22;7917;50.818;6.972;2022-09-13T10:33:55;25.00;99.90
15636;DHT22;7917;50.818;6.972;2022-09-13T10:36:25;25.10;99.90
15636;DHT22;7917;50.818;6.972;2022-09-13T10:38:58;25.10;99.90
15636;DHT22;7917;50.818;6.972;2022-09-13T10:41:30;25.30;99.90
15636;DHT22;7917;50.818;6.972;2022-09-13T10:44:00;25.40;99.90
15636;DHT22;7917;50.818;6.972;2022-09-13T10:46:32;25.40;99.90
15636;DHT22;7917;50.818;6.972;2022-09-13T10:49:00;25.30;99.90
15636;DHT22;7917;50.818;6.972;2022-09-13T10:51:34;25.30;99.90
15636;DHT22;7917;50.818;6.972;2022-09-13T10:54:16;25.40;99.90
15636;DHT22;7917;50.818;6.972;2022-09-13T10:56:46;25.50;99.90
15636;DHT22;7917;50.818;6.972;2022-09-13T10:59:21;25.40;99.90
15636;DHT22;7917;50.818;6.972;2022-09-13T11:02:21;25.60;99.90
15636;DHT22;7917;50.818;6.972;2022-09-13T11:05:08;25.80;99.90
15636;DHT22;7917;50.818;6.972;2022-09-13T11:08:14;26.00;99.90
15636;DHT22;7917;50.818;6.972;2022-09-13T11:10:54;25.90;99.90
15636;DHT22;7917;50.818;6.972;2022-09-13T11:13:33;26.10;99.90
15636;DHT22;7917;50.818;6.972;2022-09-13T11:16:10;26.30;99.90
15636;DHT22;7917;50.818;6.972;2022-09-13T11:18:48;26.30;99.90
15636;DHT22;7917;50.818;6.972;2022-09-13T11:21:34;26.40;99.90
15636;DHT22;7917;50.818;6.972;2022-09-13T11:24:18;26.70;99.90
15636;DHT22;7917;50.818;6.972;2022-09-13T11:26:59;26.70;99.90
15636;DHT22;7917;50.818;6.972;2022-09-13T11:29:41;26.80;99.90
15636;DHT22;7917;50.818;6.972;2022-09-13T11:32:22;26.90;99.90
15636;DHT22;7917;50.818;6.972;2022-09-13T11:35:13;26.90;99.90
15636;DHT22;7917;50.818;6.972;2022-09-13T11:37:46;27.00;99.90
15636;DHT22;7917;50.818;6.972;2022-09-13T11:40:31;27.00;99.90
15636;DHT22;7917;50.818;6.972;2022-09-13T11:43:12;27.00;99.90
15636;DHT22;7917;50.818;6.972;2022-09-13T11:45:49;27.30;99.90
15636;DHT22;7917;50.818;6.972;2022-09-13T11:48:39;27.40;99.90
15636;DHT22;7917;50.818;6.972;2022-09-13T11:51:16;27.50;99.90
15636;DHT22;7917;50.818;6.972;2022-09-13T11:54:00;27.30;99.90
15636;DHT22;7917;50.818;6.972;2022-09-13T11:56:34;27.30;99.90
15636;DHT22;7917;50.818;6.972;2022-09-13T11:59:11;27.30;99.90
15636;DHT22;7917;50.818;6.972;2022-09-13T12:01:46;27.40;99.90
15636;DHT22;7917;50.818;6.972;2022-09-13T12:04:21;27.10;99.90
15636;DHT22;7917;50.818;6.972;2022-09-13T12:06:53;27.00;99.90
15636;DHT22;7917;50.818;6.972;2022-09-13T12:09:25;27.10;99.90
15636;DHT22;7917;50.818;6.972;2022-09-13T12:12:01;26.90;99.90
15636;DHT22;7917;50.818;6.972;2022-09-13T12:14:35;27.20;99.90
15636;DHT22;7917;50.818;6.972;2022-09-13T12:17:16;27.40;99.90
15636;DHT22;7917;50.818;6.972;2022-09-13T12:19:50;27.50;99.90
15636;DHT22;7917;50.818;6.972;2022-09-13T12:22:20;27.40;99.90
15636;DHT22;7917;50.818;6.972;2022-09-13T12:24:50;27.20;99.90
15636;DHT22;7917;50.818;6.972;2022-09-13T12:27:24;27.10;99.90
15636;DHT22;7917;50.818;6.972;2022-09-13T12:30:13;27.10;99.90
15636;DHT22;7917;50.818;6.972;2022-09-13T12:32:43;27.00;99.90
15636;DHT22;7917;50.818;6.972;2022-09-13T12:35:21;27.00;99.90
15636;DHT22;7917;50.818;6.972;2022-09-13T12:41:11;27.30;99.90
15636;DHT22;7917;50.818;6.972;2022-09-13T12:44:22;27.40;99.90
15636;DHT22;7917;50.818;6.972;2022-09-13T12:47:10;27.60;99.90
15636;DHT22;7917;50.818;6.972;2022-09-13T12:50:17;27.80;99.90
15636;DHT22;7917;50.818;6.972;2022-09-13T12:53:04;27.70;99.90
15636;DHT22;7917;50.818;6.972;2022-09-13T12:55:59;27.70;99.90
15636;DHT22;7917;50.818;6.972;2022-09-13T12:58:52;28.00;99.90
15636;DHT22;7917;50.818;6.972;2022-09-13T13:01:26;28.40;99.90
15636;DHT22;7917;50.818;6.972;2022-09-13T13:03:57;28.60;99.90
15636;DHT22;7917;50.818;6.972;2022-09-13T13:06:31;28.50;99.90
15636;DHT22;7917;50.818;6.972;2022-09-13T13:09:03;28.40;99.90
15636;DHT22;7917;50.818;6.972;2022-09-13T13:11:42;28.30;99.90
15636;DHT22;7917;50.818;6.972;2022-09-13T13:14:26;28.10;99.90
15636;DHT22;7917;50.818;6.972;2022-09-13T13:16:54;28.10;99.90
15636;DHT22;7917;50.818;6.972;2022-09-13T13:19:43;27.80;99.90
15636;DHT22;7917;50.818;6.972;2022-09-13T13:22:49;27.90;99.90
15636;DHT22;7917;50.818;6.972;2022-09-13T13:25:34;27.80;99.90
15636;DHT22;7917;50.818;6.972;2022-09-13T13:31:34;28.20;99.90
15636;DHT22;7917;50.818;6.972;2022-09-13T13:34:25;28.20;99.90
15636;DHT22;7917;50.818;6.972;2022-09-13T13:36:58;28.00;99.90
15636;DHT22;7917;50.818;6.972;2022-09-13T13:39:36;28.00;99.90
15636;DHT22;7917;50.818;6.972;2022-09-13T13:42:22;28.00;99.90
15636;DHT22;7917;50.818;6.972;2022-09-13T13:45:16;28.00;99.90
15636;DHT22;7917;50.818;6.972;2022-09-13T13:51:18;28.60;99.90
15636;DHT22;7917;50.818;6.972;2022-09-13T13:53:51;28.90;99.90
15636;DHT22;7917;50.818;6.972;2022-09-13T13:56:33;28.60;99.90
15636;DHT22;7917;50.818;6.972;2022-09-13T13:59:08;28.40;99.90
15636;DHT22;7917;50.818;6.972;2022-09-13T14:01:45;28.40;99.90
15636;DHT22;7917;50.818;6.972;2022-09-13T14:07:51;28.40;99.90
15636;DHT22;7917;50.818;6.972;2022-09-13T14:10:27;28.10;99.90
15636;DHT22;7917;50.818;6.972;2022-09-13T14:16:05;27.80;99.90
15636;DHT22;7917;50.818;6.972;2022-09-13T14:21:24;28.30;99.90
15636;DHT22;7917;50.818;6.972;2022-09-13T14:24:08;28.50;99.90
15636;DHT22;7917;50.818;6.972;2022-09-13T14:26:42;28.30;99.90
15636;DHT22;7917;50.818;6.972;2022-09-13T14:29:15;28.30;99.90
15636;DHT22;7917;50.818;6.972;2022-09-13T14:31:48;28.20;99.90
15636;DHT22;7917;50.818;6.972;2022-09-13T14:34:22;28.00;99.90
15636;DHT22;7917;50.818;6.972;2022-09-13T14:36:52;27.80;99.90
15636;DHT22;7917;50.818;6.972;2022-09-13T14:39:22;27.50;99.90
15636;DHT22;7917;50.818;6.972;2022-09-13T14:41:58;27.40;99.90
15636;DHT22;7917;50.818;6.972;2022-09-13T14:44:28;27.30;99.90
15636;DHT22;7917;50.818;6.972;2022-09-13T14:47:01;27.20;99.90
15636;DHT22;7917;50.818;6.972;2022-09-13T14:49:34;27.20;99.90
15636;DHT22;7917;50.818;6.972;2022-09-13T14:52:05;27.20;99.90
15636;DHT22;7917;50.818;6.972;2022-09-13T14:54:37;27.10;99.90
15636;DHT22;7917;50.818;6.972;2022-09-13T14:57:07;26.90;99.90
15636;DHT22;7917;50.818;6.972;2022-09-13T14:59:42;26.70;99.90
15636;DHT22;7917;50.818;6.972;2022-09-13T15:02:17;26.50;99.90
15636;DHT22;7917;50.818;6.972;2022-09-13T15:04:49;26.50;99.90
15636;DHT22;7917;50.818;6.972;2022-09-13T15:07:27;26.40;99.90
15636;DHT22;7917;50.818;6.972;2022-09-13T15:10:05;26.40;99.90
15636;DHT22;7917;50.818;6.972;2022-09-13T15:12:34;26.30;99.90
15636;DHT22;7917;50.818;6.972;2022-09-13T15:15:23;26.20;99.90
15636;DHT22;7917;50.818;6.972;2022-09-13T15:17:57;26.20;99.90
15636;DHT22;7917;50.818;6.972;2022-09-13T15:20:28;26.00;99.90
15636;DHT22;7917;50.818;6.972;2022-09-13T15:22:56;25.90;99.90
15636;DHT22;7917;50.818;6.972;2022-09-13T15:25:26;25.80;99.90
15636;DHT22;7917;50.818;6.972;2022-09-13T15:27:55;25.70;99.90
15636;DHT22;7917;50.818;6.972;2022-09-13T15:30:28;25.60;99.90
15636;DHT22;7917;50.818;6.972;2022-09-13T15:33:16;25.50;99.90
15636;DHT22;7917;50.818;6.972;2022-09-13T15:35:46;25.40;99.90
15636;DHT22;7917;50.818;6.972;2022-09-13T15:38:22;25.30;99.90
15636;DHT22;7917;50.818;6.972;2022-09-13T15:40:59;25.30;99.90
15636;DHT22;7917;50.818;6.972;2022-09-13T15:43:29;25.30;99.90
15636;DHT22;7917;50.818;6.972;2022-09-13T15:45:59;25.20;99.90
15636;DHT22;7917;50.818;6.972;2022-09-13T15:48:29;25.20;99.90
15636;DHT22;7917;50.818;6.972;2022-09-13T15:51:09;25.20;99.90
15636;DHT22;7917;50.818;6.972;2022-09-13T15:53:38;25.10;99.90
15636;DHT22;7917;50.818;6.972;2022-09-13T15:56:07;25.00;99.90
15636;DHT22;7917;50.818;6.972;2022-09-13T15:58:35;25.00;99.90
15636;DHT22;7917;50.818;6.972;2022-09-13T16:01:06;24.90;99.90
15636;DHT22;7917;50.818;6.972;2022-09-13T16:03:33;24.90;99.90
15636;DHT22;7917;50.818;6.972;2022-09-13T16:06:01;24.70;99.90
15636;DHT22;7917;50.818;6.972;2022-09-13T16:08:29;24.60;99.90
15636;DHT22;7917;50.818;6.972;2022-09-13T16:10:57;24.40;99.90
15636;DHT22;7917;50.818;6.972;2022-09-13T16:13:25;24.20;99.90
15636;DHT22;7917;50.818;6.972;2022-09-13T16:15:54;24.00;99.90
15636;DHT22;7917;50.818;6.972;2022-09-13T16:18:24;23.90;99.90
15636;DHT22;7917;50.818;6.972;2022-09-13T16:20:51;23.80;99.90
15636;DHT22;7917;50.818;6.972;2022-09-13T16:23:20;23.60;99.90
15636;DHT22;7917;50.818;6.972;2022-09-13T16:25:51;23.40;99.90
15636;DHT22;7917;50.818;6.972;2022-09-13T16:28:20;23.30;99.90
15636;DHT22;7917;50.818;6.972;2022-09-13T16:30:48;23.20;99.90
15636;DHT22;7917;50.818;6.972;2022-09-13T16:33:17;23.00;99.90
15636;DHT22;7917;50.818;6.972;2022-09-13T16:35:47;22.90;99.90
15636;DHT22;7917;50.818;6.972;2022-09-13T16:38:15;22.70;99.90
15636;DHT22;7917;50.818;6.972;2022-09-13T16:40:44;22.50;99.90
15636;DHT22;7917;50.818;6.972;2022-09-13T16:43:12;22.30;99.90
15636;DHT22;7917;50.818;6.972;2022-09-13T16:45:42;22.30;99.90
15636;DHT22;7917;50.818;6.972;2022-09-13T16:48:10;22.20;99.90
15636;DHT22;7917;50.818;6.972;2022-09-13T16:50:39;22.00;99.90
15636;DHT22;7917;50.818;6.972;2022-09-13T16:53:21;21.90;99.90
15636;DHT22;7917;50.818;6.972;2022-09-13T16:55:49;21.80;99.90